sensor_id;sensor_type;location;lat;lon;timestamp;pressure;altitude;pressure_sealevel;temperature;humidity
64192;BME280;50497;50.720;-2.084;2024-02-28T00:00:57;102332.63;;;8.83;100.00
64192;BME280;50497;50.720;-2.084;2024-02-28T00:03:22;102335.34;;;8.80;100.00
64192;BME280;50497;50.720;-2.084;2024-02-28T00:05:49;102326.66;;;8.64;100.00
64192;BME280;50497;50.720;-2.084;2024-02-28T00:08:14;102325.09;;;8.49;100.00
64192;BME280;50497;50.720;-2.084;2024-02-28T00:10:40;102328.69;;;8.47;100.00
64192;BME280;50497;50.720;-2.084;2024-02-28T00:13:05;102332.28;;;8.43;100.00
64192;BME280;50497;50.720;-2.084;2024-02-28T00:15:30;102343.88;;;8.40;100.00
64192;BME280;50497;50.720;-2.084;2024-02-28T00:17:56;102354.53;;;8.39;100.00
64192;BME280;50497;50.720;-2.084;2024-02-28T00:20:21;102356.31;;;8.37;100.00
64192;BME280;50497;50.720;-2.084;2024-02-28T00:22:49;102368.78;;;8.38;100.00
64192;BME280;50497;50.720;-2.084;2024-02-28T00:25:14;102356.38;;;8.35;100.00
64192;BME280;50497;50.720;-2.084;2024-02-28T00:27:40;102374.06;;;8.41;100.00
64192;BME280;50497;50.720;-2.084;2024-02-28T00:30:06;102389.19;;;8.43;100.00
64192;BME280;50497;50.720;-2.084;2024-02-28T00:32:32;102390.94;;;8.41;100.00
64192;BME280;50497;50.720;-2.084;2024-02-28T00:34:58;102407.88;;;8.43;100.00
64192;BME280;50497;50.720;-2.084;2024-02-28T00:37:23;102398.97;;;8.43;100.00
64192;BME280;50497;50.720;-2.084;2024-02-28T00:39:49;102398.06;;;8.42;100.00
64192;BME280;50497;50.720;-2.084;2024-02-28T00:42:14;102391.88;;;8.40;100.00
64192;BME280;50497;50.720;-2.084;2024-02-28T00:44:40;102389.28;;;8.32;100.00
64192;BME280;50497;50.720;-2.084;2024-02-28T00:47:08;102400.78;;;8.36;100.00
64192;BME280;50497;50.720;-2.084;2024-02-28T00:49:33;102397.22;;;8.43;100.00
64192;BME280;50497;50.720;-2.084;2024-02-28T00:52:01;102406.94;;;8.41;100.00
64192;BME280;50497;50.720;-2.084;2024-02-28T00:54:26;102413.16;;;8.45;100.00
64192;BME280;50497;50.720;-2.084;2024-02-28T00:56:52;102409.63;;;8.44;100.00
64192;BME280;50497;50.720;-2.084;2024-02-28T00:59:17;102408.72;;;8.47;100.00
64192;BME280;50497;50.720;-2.084;2024-02-28T01:01:43;102405.13;;;8.48;100.00
64192;BME280;50497;50.720;-2.084;2024-02-28T01:04:08;102419.28;;;8.53;100.00
64192;BME280;50497;50.720;-2.084;2024-02-28T01:06:33;102424.59;;;8.56;100.00
64192;BME280;50497;50.720;-2.084;2024-02-28T01:08:59;102430.72;;;8.64;100.00
64192;BME280;50497;50.720;-2.084;2024-02-28T01:11:25;102412.97;;;8.62;100.00
64192;BME280;50497;50.720;-2.084;2024-02-28T01:13:50;102420.97;;;8.65;100.00
64192;BME280;50497;50.720;-2.084;2024-02-28T01:16:16;102422.75;;;8.61;100.00
64192;BME280;50497;50.720;-2.084;2024-02-28T01:18:42;102415.56;;;8.66;100.00
64192;BME280;50497;50.720;-2.084;2024-02-28T01:21:07;102407.50;;;8.73;100.00
64192;BME280;50497;50.720;-2.084;2024-02-28T01:23:33;102409.25;;;8.75;100.00
64192;BME280;50497;50.720;-2.084;2024-02-28T01:25:58;102394.13;;;8.74;100.00
64192;BME280;50497;50.720;-2.084;2024-02-28T01:28:23;102381.66;;;8.75;100.00
64192;BME280;50497;50.720;-2.084;2024-02-28T01:30:49;102355.06;;;8.70;100.00
64192;BME280;50497;50.720;-2.084;2024-02-28T01:33:14;102336.38;;;8.70;100.00
64192;BME280;50497;50.720;-2.084;2024-02-28T01:35:40;102303.47;;;8.69;100.00
64192;BME280;50497;50.720;-2.084;2024-02-28T01:38:05;102290.09;;;8.71;100.00
64192;BME280;50497;50.720;-2.084;2024-02-28T01:40:31;102277.72;;;8.68;100.00
64192;BME280;50497;50.720;-2.084;2024-02-28T01:43:08;102258.06;;;8.73;100.00
64192;BME280;50497;50.720;-2.084;2024-02-28T01:45:34;102240.22;;;8.75;100.00
64192;BME280;50497;50.720;-2.084;2024-02-28T01:48:00;102221.56;;;8.75;100.00
64192;BME280;50497;50.720;-2.084;2024-02-28T01:50:26;102197.53;;;8.75;100.00
64192;BME280;50497;50.720;-2.084;2024-02-28T01:52:51;102185.13;;;8.74;100.00
64192;BME280;50497;50.720;-2.084;2024-02-28T01:55:17;102166.38;;;8.77;100.00
64192;BME280;50497;50.720;-2.084;2024-02-28T01:57:42;102160.13;;;8.78;100.00
64192;BME280;50497;50.720;-2.084;2024-02-28T02:00:09;102160.16;;;8.76;100.00
64192;BME280;50497;50.720;-2.084;2024-02-28T02:02:34;102154.84;;;8.75;100.00
64192;BME280;50497;50.720;-2.084;2024-02-28T02:05:00;102150.38;;;8.77;100.00
64192;BME280;50497;50.720;-2.084;2024-02-28T02:07:25;102125.38;;;8.81;100.00
64192;BME280;50497;50.720;-2.084;2024-02-28T02:09:51;102092.44;;;8.83;100.00
64192;BME280;50497;50.720;-2.084;2024-02-28T02:12:17;102060.53;;;8.77;100.00
64192;BME280;50497;50.720;-2.084;2024-02-28T02:14:47;102048.03;;;8.79;100.00
64192;BME280;50497;50.720;-2.084;2024-02-28T02:17:13;102024.94;;;8.78;100.00
64192;BME280;50497;50.720;-2.084;2024-02-28T02:19:38;102014.19;;;8.80;100.00
64192;BME280;50497;50.720;-2.084;2024-02-28T02:22:05;101999.16;;;8.76;100.00
64192;BME280;50497;50.720;-2.084;2024-02-28T02:24:30;101975.16;;;8.76;100.00
64192;BME280;50497;50.720;-2.084;2024-02-28T02:26:59;101965.47;;;8.72;100.00
64192;BME280;50497;50.720;-2.084;2024-02-28T02:29:25;101957.47;;;8.72;100.00
64192;BME280;50497;50.720;-2.084;2024-02-28T02:31:50;101941.47;;;8.72;100.00
64192;BME280;50497;50.720;-2.084;2024-02-28T02:34:15;101933.50;;;8.68;100.00
64192;BME280;50497;50.720;-2.084;2024-02-28T02:36:41;101926.34;;;8.71;100.00
64192;BME280;50497;50.720;-2.084;2024-02-28T02:39:06;101917.53;;;8.67;100.00
64192;BME280;50497;50.720;-2.084;2024-02-28T02:41:33;101898.06;;;8.62;100.00
64192;BME280;50497;50.720;-2.084;2024-02-28T02:43:58;101890.31;;;8.49;100.00
64192;BME280;50497;50.720;-2.084;2024-02-28T02:46:24;101885.13;;;8.43;100.00
64192;BME280;50497;50.720;-2.084;2024-02-28T02:48:49;101886.97;;;8.37;100.00
64192;BME280;50497;50.720;-2.084;2024-02-28T02:51:14;101895.94;;;8.32;100.00
64192;BME280;50497;50.720;-2.084;2024-02-28T02:53:42;101901.56;;;8.19;100.00
64192;BME280;50497;50.720;-2.084;2024-02-28T02:56:08;101899.88;;;8.11;100.00
64192;BME280;50497;50.720;-2.084;2024-02-28T02:58:33;101892.16;;;7.98;100.00
64192;BME280;50497;50.720;-2.084;2024-02-28T03:00:59;101894.09;;;7.89;100.00
64192;BME280;50497;50.720;-2.084;2024-02-28T03:03:24;101892.50;;;7.79;100.00
64192;BME280;50497;50.720;-2.084;2024-02-28T03:05:49;101893.44;;;7.75;100.00
64192;BME280;50497;50.720;-2.084;2024-02-28T03:08:15;101908.63;;;7.68;100.00
64192;BME280;50497;50.720;-2.084;2024-02-28T03:10:40;101904.41;;;7.55;100.00
64192;BME280;50497;50.720;-2.084;2024-02-28T03:13:06;101916.09;;;7.46;100.00
64192;BME280;50497;50.720;-2.084;2024-02-28T03:15:32;101916.22;;;7.37;100.00
64192;BME280;50497;50.720;-2.084;2024-02-28T03:17:58;101927.03;;;7.29;100.00
64192;BME280;50497;50.720;-2.084;2024-02-28T03:20:23;101937.81;;;7.18;100.00
64192;BME280;50497;50.720;-2.084;2024-02-28T03:22:49;101947.66;;;7.12;100.00
64192;BME280;50497;50.720;-2.084;2024-02-28T03:25:14;101943.41;;;6.97;100.00
64192;BME280;50497;50.720;-2.084;2024-02-28T03:27:40;101958.50;;;6.96;100.00
64192;BME280;50497;50.720;-2.084;2024-02-28T03:30:06;101977.31;;;6.82;100.00
64192;BME280;50497;50.720;-2.084;2024-02-28T03:32:31;101993.31;;;6.78;100.00
64192;BME280;50497;50.720;-2.084;2024-02-28T03:34:57;102012.00;;;6.72;100.00
64192;BME280;50497;50.720;-2.084;2024-02-28T03:37:22;102034.16;;;6.71;100.00
64192;BME280;50497;50.720;-2.084;2024-02-28T03:39:47;102040.41;;;6.70;100.00
64192;BME280;50497;50.720;-2.084;2024-02-28T03:42:13;102043.13;;;6.62;100.00
64192;BME280;50497;50.720;-2.084;2024-02-28T03:44:38;102049.47;;;6.48;100.00
64192;BME280;50497;50.720;-2.084;2024-02-28T03:47:03;102049.50;;;6.44;100.00
64192;BME280;50497;50.720;-2.084;2024-02-28T03:49:29;102066.34;;;6.44;100.00
64192;BME280;50497;50.720;-2.084;2024-02-28T03:51:54;102076.16;;;6.39;100.00
64192;BME280;50497;50.720;-2.084;2024-02-28T03:54:20;102058.47;;;6.31;100.00
64192;BME280;50497;50.720;-2.084;2024-02-28T03:56:45;102069.13;;;6.27;100.00
64192;BME280;50497;50.720;-2.084;2024-02-28T03:59:10;102071.88;;;6.21;100.00
64192;BME280;50497;50.720;-2.084;2024-02-28T04:01:36;102078.97;;;6.18;100.00
64192;BME280;50497;50.720;-2.084;2024-02-28T04:04:01;102072.75;;;6.20;100.00
64192;BME280;50497;50.720;-2.084;2024-02-28T04:06:27;102116.13;;;6.22;100.00
64192;BME280;50497;50.720;-2.084;2024-02-28T04:08:53;102140.94;;;6.26;100.00
64192;BME280;50497;50.720;-2.084;2024-02-28T04:11:19;102146.19;;;6.32;100.00
64192;BME280;50497;50.720;-2.084;2024-02-28T04:13:44;102160.41;;;6.31;100.00
64192;BME280;50497;50.720;-2.084;2024-02-28T04:16:10;102155.97;;;6.30;100.00
64192;BME280;50497;50.720;-2.084;2024-02-28T04:18:36;102166.59;;;6.28;100.00
64192;BME280;50497;50.720;-2.084;2024-02-28T04:21:01;102165.72;;;6.28;100.00
64192;BME280;50497;50.720;-2.084;2024-02-28T04:23:27;102176.34;;;6.28;100.00
64192;BME280;50497;50.720;-2.084;2024-02-28T04:25:52;102164.81;;;6.29;100.00
64192;BME280;50497;50.720;-2.084;2024-02-28T04:28:17;102166.56;;;6.33;100.00
64192;BME280;50497;50.720;-2.084;2024-02-28T04:30:43;102156.75;;;6.44;100.00
64192;BME280;50497;50.720;-2.084;2024-02-28T04:33:08;102151.44;;;6.44;100.00
64192;BME280;50497;50.720;-2.084;2024-02-28T04:35:34;102154.09;;;6.46;100.00
64192;BME280;50497;50.720;-2.084;2024-02-28T04:37:59;102164.72;;;6.44;100.00
64192;BME280;50497;50.720;-2.084;2024-02-28T04:40:25;102151.44;;;6.44;100.00
64192;BME280;50497;50.720;-2.084;2024-02-28T04:42:50;102146.03;;;6.52;100.00
64192;BME280;50497;50.720;-2.084;2024-02-28T04:45:16;102146.84;;;6.60;100.00
64192;BME280;50497;50.720;-2.084;2024-02-28T04:47:41;102149.59;;;6.53;100.00
64192;BME280;50497;50.720;-2.084;2024-02-28T04:50:07;102143.41;;;6.49;100.00
64192;BME280;50497;50.720;-2.084;2024-02-28T04:52:33;102152.28;;;6.48;100.00
64192;BME280;50497;50.720;-2.084;2024-02-28T04:54:58;102156.75;;;6.44;100.00
64192;BME280;50497;50.720;-2.084;2024-02-28T04:57:23;102150.59;;;6.39;100.00
64192;BME280;50497;50.720;-2.084;2024-02-28T04:59:49;102145.22;;;6.44;100.00
64192;BME280;50497;50.720;-2.084;2024-02-28T05:02:15;102130.16;;;6.44;100.00
64192;BME280;50497;50.720;-2.084;2024-02-28T05:04:40;102138.19;;;6.38;100.00
64192;BME280;50497;50.720;-2.084;2024-02-28T05:07:05;102140.84;;;6.37;100.00
64192;BME280;50497;50.720;-2.084;2024-02-28T05:09:32;102132.84;;;6.41;100.00
64192;BME280;50497;50.720;-2.084;2024-02-28T05:11:58;102117.72;;;6.46;100.00
64192;BME280;50497;50.720;-2.084;2024-02-28T05:14:24;102112.44;;;6.43;100.00
64192;BME280;50497;50.720;-2.084;2024-02-28T05:16:49;102095.63;;;6.41;100.00
64192;BME280;50497;50.720;-2.084;2024-02-28T05:19:15;102085.88;;;6.37;100.00
64192;BME280;50497;50.720;-2.084;2024-02-28T05:21:44;102085.97;;;6.31;100.00
64192;BME280;50497;50.720;-2.084;2024-02-28T05:24:10;102078.84;;;6.36;100.00
64192;BME280;50497;50.720;-2.084;2024-02-28T05:26:36;102069.13;;;6.29;100.00
64192;BME280;50497;50.720;-2.084;2024-02-28T05:29:02;102049.63;;;6.33;100.00
64192;BME280;50497;50.720;-2.084;2024-02-28T05:31:29;102044.28;;;6.36;100.00
64192;BME280;50497;50.720;-2.084;2024-02-28T05:33:56;102042.53;;;6.31;100.00
64192;BME280;50497;50.720;-2.084;2024-02-28T05:36:23;102019.50;;;6.34;100.00
64192;BME280;50497;50.720;-2.084;2024-02-28T05:38:48;102008.00;;;6.29;100.00
64192;BME280;50497;50.720;-2.084;2024-02-28T05:41:16;101992.94;;;6.33;100.00
64192;BME280;50497;50.720;-2.084;2024-02-28T05:43:41;101962.75;;;6.35;100.00
64192;BME280;50497;50.720;-2.084;2024-02-28T05:46:06;101934.38;;;6.37;100.00
64192;BME280;50497;50.720;-2.084;2024-02-28T05:48:54;101908.66;;;6.41;100.00
64192;BME280;50497;50.720;-2.084;2024-02-28T05:51:19;101872.31;;;6.41;100.00
64192;BME280;50497;50.720;-2.084;2024-02-28T05:53:45;101832.31;;;6.51;100.00
64192;BME280;50497;50.720;-2.084;2024-02-28T05:56:10;101794.16;;;6.55;100.00
64192;BME280;50497;50.720;-2.084;2024-02-28T05:58:40;101772.03;;;6.53;100.00
64192;BME280;50497;50.720;-2.084;2024-02-28T06:01:05;101735.72;;;6.50;100.00
64192;BME280;50497;50.720;-2.084;2024-02-28T06:03:32;101714.50;;;6.45;100.00
64192;BME280;50497;50.720;-2.084;2024-02-28T06:05:58;101672.94;;;6.41;100.00
64192;BME280;50497;50.720;-2.084;2024-02-28T06:08:23;101649.00;;;6.43;100.00
64192;BME280;50497;50.720;-2.084;2024-02-28T06:10:49;101607.38;;;6.40;100.00
64192;BME280;50497;50.720;-2.084;2024-02-28T06:13:14;101567.50;;;6.40;100.00
64192;BME280;50497;50.720;-2.084;2024-02-28T06:15:40;101543.63;;;6.37;100.00
64192;BME280;50497;50.720;-2.084;2024-02-28T06:18:05;101501.22;;;6.33;100.00
64192;BME280;50497;50.720;-2.084;2024-02-28T06:20:31;101478.97;;;6.37;100.00
64192;BME280;50497;50.720;-2.084;2024-02-28T06:22:56;101453.34;;;6.34;100.00
64192;BME280;50497;50.720;-2.084;2024-02-28T06:25:22;101427.69;;;6.32;100.00
64192;BME280;50497;50.720;-2.084;2024-02-28T06:27:49;101412.66;;;6.29;100.00
64192;BME280;50497;50.720;-2.084;2024-02-28T06:30:15;101386.19;;;6.26;100.00
64192;BME280;50497;50.720;-2.084;2024-02-28T06:32:42;101367.72;;;6.18;100.00
64192;BME280;50497;50.720;-2.084;2024-02-28T06:35:08;101358.94;;;6.15;100.00
64192;BME280;50497;50.720;-2.084;2024-02-28T06:37:34;101342.09;;;6.14;100.00
64192;BME280;50497;50.720;-2.084;2024-02-28T06:40:00;101317.41;;;6.07;100.00
64192;BME280;50497;50.720;-2.084;2024-02-28T06:42:25;101299.09;;;5.92;100.00
64192;BME280;50497;50.720;-2.084;2024-02-28T06:44:51;101271.81;;;5.84;100.00
64192;BME280;50497;50.720;-2.084;2024-02-28T06:47:16;101246.25;;;5.80;100.00
64192;BME280;50497;50.720;-2.084;2024-02-28T06:49:43;101218.91;;;5.74;100.00
64192;BME280;50497;50.720;-2.084;2024-02-28T06:52:08;101198.72;;;5.64;100.00
64192;BME280;50497;50.720;-2.084;2024-02-28T06:54:33;101184.38;;;5.74;100.00
64192;BME280;50497;50.720;-2.084;2024-02-28T06:56:59;101179.09;;;5.73;100.00
64192;BME280;50497;50.720;-2.084;2024-02-28T06:59:24;101177.28;;;5.75;100.00
64192;BME280;50497;50.720;-2.084;2024-02-28T07:01:50;101171.13;;;5.74;100.00
64192;BME280;50497;50.720;-2.084;2024-02-28T07:04:15;101163.03;;;5.79;100.00
64192;BME280;50497;50.720;-2.084;2024-02-28T07:06:41;101158.56;;;5.83;100.00
64192;BME280;50497;50.720;-2.084;2024-02-28T07:09:09;101147.94;;;5.83;100.00
64192;BME280;50497;50.720;-2.084;2024-02-28T07:11:35;101137.16;;;5.89;100.00
64192;BME280;50497;50.720;-2.084;2024-02-28T07:14:00;101114.13;;;5.91;100.00
64192;BME280;50497;50.720;-2.084;2024-02-28T07:16:29;101112.44;;;5.87;100.00
64192;BME280;50497;50.720;-2.084;2024-02-28T07:18:55;101094.59;;;5.92;100.00
64192;BME280;50497;50.720;-2.084;2024-02-28T07:21:20;101078.66;;;5.92;100.00
64192;BME280;50497;50.720;-2.084;2024-02-28T07:23:45;101073.44;;;5.89;100.00
64192;BME280;50497;50.720;-2.084;2024-02-28T07:26:17;101074.16;;;5.97;100.00
64192;BME280;50497;50.720;-2.084;2024-02-28T07:28:43;101075.06;;;5.98;100.00
64192;BME280;50497;50.720;-2.084;2024-02-28T07:31:17;101086.44;;;6.03;100.00
64192;BME280;50497;50.720;-2.084;2024-02-28T07:33:43;101096.25;;;5.99;100.00
64192;BME280;50497;50.720;-2.084;2024-02-28T07:36:08;101101.66;;;5.96;100.00
64192;BME280;50497;50.720;-2.084;2024-02-28T07:38:34;101098.72;;;6.07;100.00
64192;BME280;50497;50.720;-2.084;2024-02-28T07:40:59;101097.78;;;6.09;100.00
64192;BME280;50497;50.720;-2.084;2024-02-28T07:43:25;101077.31;;;6.15;100.00
64192;BME280;50497;50.720;-2.084;2024-02-28T07:45:50;101065.69;;;6.19;100.00
64192;BME280;50497;50.720;-2.084;2024-02-28T07:48:15;101049.59;;;6.25;100.00
64192;BME280;50497;50.720;-2.084;2024-02-28T07:50:44;101030.78;;;6.34;100.00
64192;BME280;50497;50.720;-2.084;2024-02-28T07:53:10;101010.25;;;6.41;100.00
64192;BME280;50497;50.720;-2.084;2024-02-28T07:55:35;100984.56;;;6.40;100.00
64192;BME280;50497;50.720;-2.084;2024-02-28T07:58:00;100954.31;;;6.44;100.00
64192;BME280;50497;50.720;-2.084;2024-02-28T08:00:26;100937.44;;;6.46;100.00
64192;BME280;50497;50.720;-2.084;2024-02-28T08:02:51;100909.72;;;6.55;100.00
64192;BME280;50497;50.720;-2.084;2024-02-28T08:05:17;100876.66;;;6.64;100.00
64192;BME280;50497;50.720;-2.084;2024-02-28T08:07:43;100828.38;;;6.79;100.00
64192;BME280;50497;50.720;-2.084;2024-02-28T08:10:09;100802.50;;;6.84;100.00
64192;BME280;50497;50.720;-2.084;2024-02-28T08:12:36;100777.38;;;6.95;100.00
64192;BME280;50497;50.720;-2.084;2024-02-28T08:15:02;100752.88;;;7.12;100.00
64192;BME280;50497;50.720;-2.084;2024-02-28T08:17:27;100739.28;;;7.21;100.00
64192;BME280;50497;50.720;-2.084;2024-02-28T08:19:54;100727.91;;;7.16;100.00
64192;BME280;50497;50.720;-2.084;2024-02-28T08:22:19;100720.25;;;7.32;100.00
64192;BME280;50497;50.720;-2.084;2024-02-28T08:24:45;100707.34;;;7.46;100.00
64192;BME280;50497;50.720;-2.084;2024-02-28T08:27:10;100686.72;;;7.53;100.00
64192;BME280;50497;50.720;-2.084;2024-02-28T08:29:36;100693.38;;;7.65;100.00
64192;BME280;50497;50.720;-2.084;2024-02-28T08:32:09;100696.41;;;7.55;100.00
64192;BME280;50497;50.720;-2.084;2024-02-28T08:34:35;100676.91;;;7.78;100.00
64192;BME280;50497;50.720;-2.084;2024-02-28T08:37:00;100667.81;;;7.84;100.00
64192;BME280;50497;50.720;-2.084;2024-02-28T08:39:25;100653.44;;;7.88;100.00
64192;BME280;50497;50.720;-2.084;2024-02-28T08:41:51;100641.25;;;7.83;100.00
64192;BME280;50497;50.720;-2.084;2024-02-28T08:44:16;100619.66;;;7.90;100.00
64192;BME280;50497;50.720;-2.084;2024-02-28T08:46:41;100622.75;;;8.02;100.00
64192;BME280;50497;50.720;-2.084;2024-02-28T08:49:07;100586.78;;;8.13;100.00
64192;BME280;50497;50.720;-2.084;2024-02-28T08:51:33;100559.13;;;8.16;100.00
64192;BME280;50497;50.720;-2.084;2024-02-28T08:53:59;100524.19;;;8.24;100.00
64192;BME280;50497;50.720;-2.084;2024-02-28T08:56:25;100501.25;;;8.20;100.00
64192;BME280;50497;50.720;-2.084;2024-02-28T08:58:50;100501.53;;;8.13;100.00
64192;BME280;50497;50.720;-2.084;2024-02-28T09:01:15;100500.13;;;8.25;100.00
64192;BME280;50497;50.720;-2.084;2024-02-28T09:03:41;100505.66;;;8.43;100.00
64192;BME280;50497;50.720;-2.084;2024-02-28T09:06:07;100535.00;;;8.41;100.00
64192;BME280;50497;50.720;-2.084;2024-02-28T09:08:32;100525.28;;;8.62;100.00
64192;BME280;50497;50.720;-2.084;2024-02-28T09:10:58;100526.59;;;8.73;100.00
64192;BME280;50497;50.720;-2.084;2024-02-28T09:13:23;100505.34;;;8.92;100.00
64192;BME280;50497;50.720;-2.084;2024-02-28T09:15:49;100490.06;;;8.95;100.00
64192;BME280;50497;50.720;-2.084;2024-02-28T09:18:14;100499.66;;;8.79;100.00
64192;BME280;50497;50.720;-2.084;2024-02-28T09:20:40;100482.66;;;8.81;100.00
64192;BME280;50497;50.720;-2.084;2024-02-28T09:23:05;100447.38;;;8.95;100.00
64192;BME280;50497;50.720;-2.084;2024-02-28T09:25:32;100432.22;;;8.96;100.00
64192;BME280;50497;50.720;-2.084;2024-02-28T09:27:58;100412.16;;;9.06;100.00
64192;BME280;50497;50.720;-2.084;2024-02-28T09:30:25;100378.88;;;9.15;100.00
64192;BME280;50497;50.720;-2.084;2024-02-28T09:32:50;100341.31;;;9.18;100.00
64192;BME280;50497;50.720;-2.084;2024-02-28T09:35:16;100344.94;;;9.17;100.00
64192;BME280;50497;50.720;-2.084;2024-02-28T09:37:41;100337.44;;;9.25;100.00
64192;BME280;50497;50.720;-2.084;2024-02-28T09:40:10;100315.53;;;9.18;100.00
64192;BME280;50497;50.720;-2.084;2024-02-28T09:42:36;100312.94;;;9.34;100.00
64192;BME280;50497;50.720;-2.084;2024-02-28T09:45:02;100310.75;;;9.25;100.00
64192;BME280;50497;50.720;-2.084;2024-02-28T09:47:28;100280.91;;;9.34;100.00
64192;BME280;50497;50.720;-2.084;2024-02-28T09:49:57;100252.81;;;9.44;100.00
64192;BME280;50497;50.720;-2.084;2024-02-28T09:52:24;100229.03;;;9.40;100.00
64192;BME280;50497;50.720;-2.084;2024-02-28T09:54:50;100208.22;;;9.47;100.00
64192;BME280;50497;50.720;-2.084;2024-02-28T09:57:15;100201.44;;;9.39;100.00
64192;BME280;50497;50.720;-2.084;2024-02-28T09:59:42;100194.41;;;9.38;100.00
64192;BME280;50497;50.720;-2.084;2024-02-28T10:02:10;100185.75;;;9.51;100.00
64192;BME280;50497;50.720;-2.084;2024-02-28T10:04:36;100196.72;;;9.44;100.00
64192;BME280;50497;50.720;-2.084;2024-02-28T10:07:14;100207.75;;;9.38;100.00
64192;BME280;50497;50.720;-2.084;2024-02-28T10:09:42;100218.91;;;9.47;100.00
64192;BME280;50497;50.720;-2.084;2024-02-28T10:12:08;100236.56;;;9.49;100.00
64192;BME280;50497;50.720;-2.084;2024-02-28T10:14:33;100244.56;;;9.32;100.00
64192;BME280;50497;50.720;-2.084;2024-02-28T10:16:59;100242.06;;;9.46;100.00
64192;BME280;50497;50.720;-2.084;2024-02-28T10:19:24;100261.97;;;9.58;100.00
64192;BME280;50497;50.720;-2.084;2024-02-28T10:21:50;100286.16;;;9.55;100.00
64192;BME280;50497;50.720;-2.084;2024-02-28T10:24:16;100320.31;;;9.66;100.00
64192;BME280;50497;50.720;-2.084;2024-02-28T10:26:45;100318.25;;;9.71;100.00
64192;BME280;50497;50.720;-2.084;2024-02-28T10:29:13;100345.69;;;9.74;100.00
64192;BME280;50497;50.720;-2.084;2024-02-28T10:31:39;100377.59;;;9.77;100.00
64192;BME280;50497;50.720;-2.084;2024-02-28T10:34:06;100406.91;;;9.79;100.00
64192;BME280;50497;50.720;-2.084;2024-02-28T10:36:32;100424.91;;;9.75;100.00
64192;BME280;50497;50.720;-2.084;2024-02-28T10:38:59;100445.03;;;9.83;100.00
64192;BME280;50497;50.720;-2.084;2024-02-28T10:41:26;100473.78;;;9.77;100.00
64192;BME280;50497;50.720;-2.084;2024-02-28T10:43:53;100511.50;;;9.71;100.00
64192;BME280;50497;50.720;-2.084;2024-02-28T10:46:20;100545.78;;;9.80;100.00
64192;BME280;50497;50.720;-2.084;2024-02-28T10:48:46;100585.44;;;9.90;100.00
64192;BME280;50497;50.720;-2.084;2024-02-28T10:51:22;100627.88;;;9.96;100.00
64192;BME280;50497;50.720;-2.084;2024-02-28T10:53:49;100669.34;;;9.86;100.00
64192;BME280;50497;50.720;-2.084;2024-02-28T10:56:16;100711.69;;;9.95;100.00
64192;BME280;50497;50.720;-2.084;2024-02-28T10:58:51;100740.44;;;9.90;100.00
64192;BME280;50497;50.720;-2.084;2024-02-28T11:01:20;100788.78;;;9.84;100.00
64192;BME280;50497;50.720;-2.084;2024-02-28T11:03:48;100833.31;;;9.85;100.00
64192;BME280;50497;50.720;-2.084;2024-02-28T11:06:18;100871.56;;;9.85;100.00
64192;BME280;50497;50.720;-2.084;2024-02-28T11:08:47;100916.31;;;9.80;100.00
64192;BME280;50497;50.720;-2.084;2024-02-28T11:11:22;100959.25;;;9.75;100.00
64192;BME280;50497;50.720;-2.084;2024-02-28T11:13:54;101014.28;;;9.57;100.00
64192;BME280;50497;50.720;-2.084;2024-02-28T11:16:32;101043.78;;;9.54;100.00
64192;BME280;50497;50.720;-2.084;2024-02-28T11:18:59;101094.19;;;9.40;100.00
64192;BME280;50497;50.720;-2.084;2024-02-28T11:21:28;101117.41;;;9.38;100.00
64192;BME280;50497;50.720;-2.084;2024-02-28T11:23:57;101147.41;;;9.44;100.00
64192;BME280;50497;50.720;-2.084;2024-02-28T11:26:24;101176.94;;;9.41;100.00
64192;BME280;50497;50.720;-2.084;2024-02-28T11:28:49;101196.22;;;9.50;100.00
64192;BME280;50497;50.720;-2.084;2024-02-28T11:31:15;101208.66;;;9.51;100.00
64192;BME280;50497;50.720;-2.084;2024-02-28T11:33:41;101232.63;;;9.52;100.00
64192;BME280;50497;50.720;-2.084;2024-02-28T11:36:07;101257.78;;;9.47;100.00
64192;BME280;50497;50.720;-2.084;2024-02-28T11:38:34;101265.44;;;9.56;100.00
64192;BME280;50497;50.720;-2.084;2024-02-28T11:41:03;101272.44;;;9.60;100.00
64192;BME280;50497;50.720;-2.084;2024-02-28T11:43:31;101296.50;;;9.60;100.00
64192;BME280;50497;50.720;-2.084;2024-02-28T11:45:56;101306.50;;;9.53;100.00
64192;BME280;50497;50.720;-2.084;2024-02-28T11:48:22;101326.63;;;9.64;100.00
64192;BME280;50497;50.720;-2.084;2024-02-28T11:50:48;101347.53;;;9.51;100.00
64192;BME280;50497;50.720;-2.084;2024-02-28T11:53:13;101371.00;;;9.68;100.00
64192;BME280;50497;50.720;-2.084;2024-02-28T11:55:38;101382.31;;;9.76;100.00
64192;BME280;50497;50.720;-2.084;2024-02-28T11:58:09;101407.16;;;9.79;100.00
64192;BME280;50497;50.720;-2.084;2024-02-28T12:00:46;101411.75;;;9.74;100.00
64192;BME280;50497;50.720;-2.084;2024-02-28T12:03:12;101424.78;;;9.85;100.00
64192;BME280;50497;50.720;-2.084;2024-02-28T12:05:38;101442.91;;;9.75;100.00
64192;BME280;50497;50.720;-2.084;2024-02-28T12:08:04;101445.06;;;9.91;100.00
64192;BME280;50497;50.720;-2.084;2024-02-28T12:10:29;101451.84;;;9.74;100.00
64192;BME280;50497;50.720;-2.084;2024-02-28T12:12:59;101462.34;;;9.80;100.00
64192;BME280;50497;50.720;-2.084;2024-02-28T12:15:24;101470.56;;;9.74;100.00
64192;BME280;50497;50.720;-2.084;2024-02-28T12:17:52;101481.00;;;9.82;100.00
64192;BME280;50497;50.720;-2.084;2024-02-28T12:20:17;101486.75;;;9.98;100.00
64192;BME280;50497;50.720;-2.084;2024-02-28T12:22:42;101500.94;;;9.72;100.00
64192;BME280;50497;50.720;-2.084;2024-02-28T12:25:09;101518.19;;;9.90;100.00
64192;BME280;50497;50.720;-2.084;2024-02-28T12:27:34;101526.13;;;9.93;100.00
64192;BME280;50497;50.720;-2.084;2024-02-28T12:30:00;101519.97;;;9.89;100.00
64192;BME280;50497;50.720;-2.084;2024-02-28T12:32:26;101526.34;;;9.85;100.00
64192;BME280;50497;50.720;-2.084;2024-02-28T12:34:51;101539.03;;;9.78;100.00